sensor_id;sensor_type;location;lat;lon;timestamp;temperature;humidity
10121;DHT22;5100;45.176;5.714;2023-05-07T00:00:11;23.40;51.20
10121;DHT22;5100;45.176;5.714;2023-05-07T00:02:41;23.40;51.20
10121;DHT22;5100;45.176;5.714;2023-05-07T00:05:07;23.40;51.20
10121;DHT22;5100;45.176;5.714;2023-05-07T00:07:34;23.30;51.20
10121;DHT22;5100;45.176;5.714;2023-05-07T00:10:00;23.30;51.30
10121;DHT22;5100;45.176;5.714;2023-05-07T00:12:26;23.30;51.30
10121;DHT22;5100;45.176;5.714;2023-05-07T00:14:52;23.30;51.30
10121;DHT22;5100;45.176;5.714;2023-05-07T00:17:19;23.30;51.30
10121;DHT22;5100;45.176;5.714;2023-05-07T00:19:45;23.20;51.30
10121;DHT22;5100;45.176;5.714;2023-05-07T00:22:12;23.20;51.30
10121;DHT22;5100;45.176;5.714;2023-05-07T00:24:38;23.20;51.20
10121;DHT22;5100;45.176;5.714;2023-05-07T00:27:04;23.20;51.20
10121;DHT22;5100;45.176;5.714;2023-05-07T00:29:31;23.20;51.20
10121;DHT22;5100;45.176;5.714;2023-05-07T00:31:57;23.10;51.10
10121;DHT22;5100;45.176;5.714;2023-05-07T00:34:23;23.10;51.00
10121;DHT22;5100;45.176;5.714;2023-05-07T00:36:49;23.10;51.00
10121;DHT22;5100;45.176;5.714;2023-05-07T00:39:15;23.10;50.90
10121;DHT22;5100;45.176;5.714;2023-05-07T00:41:41;23.10;51.00
10121;DHT22;5100;45.176;5.714;2023-05-07T00:44:07;23.10;51.00
10121;DHT22;5100;45.176;5.714;2023-05-07T00:46:34;23.10;51.00
10121;DHT22;5100;45.176;5.714;2023-05-07T00:49:01;23.00;51.10
10121;DHT22;5100;45.176;5.714;2023-05-07T00:51:27;23.00;51.10
10121;DHT22;5100;45.176;5.714;2023-05-07T00:53:54;23.00;51.20
10121;DHT22;5100;45.176;5.714;2023-05-07T00:56:21;23.00;51.20
10121;DHT22;5100;45.176;5.714;2023-05-07T00:58:48;23.00;51.20
10121;DHT22;5100;45.176;5.714;2023-05-07T01:01:15;22.90;51.30
10121;DHT22;5100;45.176;5.714;2023-05-07T01:03:43;22.90;51.40
10121;DHT22;5100;45.176;5.714;2023-05-07T01:06:10;22.90;51.40
10121;DHT22;5100;45.176;5.714;2023-05-07T01:08:39;22.90;51.50
10121;DHT22;5100;45.176;5.714;2023-05-07T01:11:10;22.90;51.50
10121;DHT22;5100;45.176;5.714;2023-05-07T01:13:38;22.90;51.60
10121;DHT22;5100;45.176;5.714;2023-05-07T01:16:05;22.90;51.60
10121;DHT22;5100;45.176;5.714;2023-05-07T01:18:31;22.80;51.80
10121;DHT22;5100;45.176;5.714;2023-05-07T01:20:58;22.80;51.80
10121;DHT22;5100;45.176;5.714;2023-05-07T01:23:27;22.80;51.90
10121;DHT22;5100;45.176;5.714;2023-05-07T01:25:54;22.80;52.00
10121;DHT22;5100;45.176;5.714;2023-05-07T01:28:21;22.80;52.00
10121;DHT22;5100;45.176;5.714;2023-05-07T01:30:52;22.80;52.10
10121;DHT22;5100;45.176;5.714;2023-05-07T01:33:20;22.80;52.20
10121;DHT22;5100;45.176;5.714;2023-05-07T01:35:53;22.80;52.30
10121;DHT22;5100;45.176;5.714;2023-05-07T01:38:21;22.80;52.30
10121;DHT22;5100;45.176;5.714;2023-05-07T01:40:48;22.80;52.40
10121;DHT22;5100;45.176;5.714;2023-05-07T01:43:14;22.70;53.00
10121;DHT22;5100;45.176;5.714;2023-05-07T01:45:41;22.70;53.60
10121;DHT22;5100;45.176;5.714;2023-05-07T01:48:09;22.70;54.30
10121;DHT22;5100;45.176;5.714;2023-05-07T01:50:36;22.70;54.80
10121;DHT22;5100;45.176;5.714;2023-05-07T01:53:02;22.70;54.90
10121;DHT22;5100;45.176;5.714;2023-05-07T01:55:28;22.70;55.30
10121;DHT22;5100;45.176;5.714;2023-05-07T01:57:54;22.70;55.90
10121;DHT22;5100;45.176;5.714;2023-05-07T02:00:20;22.70;56.80
10121;DHT22;5100;45.176;5.714;2023-05-07T02:02:47;22.70;57.50
10121;DHT22;5100;45.176;5.714;2023-05-07T02:05:15;22.70;58.10
10121;DHT22;5100;45.176;5.714;2023-05-07T02:07:42;22.70;58.50
10121;DHT22;5100;45.176;5.714;2023-05-07T02:10:09;22.60;58.80
10121;DHT22;5100;45.176;5.714;2023-05-07T02:12:35;22.60;59.00
10121;DHT22;5100;45.176;5.714;2023-05-07T02:15:01;22.60;59.20
10121;DHT22;5100;45.176;5.714;2023-05-07T02:17:27;22.60;59.40
10121;DHT22;5100;45.176;5.714;2023-05-07T02:19:57;22.60;59.60
10121;DHT22;5100;45.176;5.714;2023-05-07T02:22:23;22.50;59.70
10121;DHT22;5100;45.176;5.714;2023-05-07T02:24:49;22.50;59.80
10121;DHT22;5100;45.176;5.714;2023-05-07T02:27:16;22.50;59.80
10121;DHT22;5100;45.176;5.714;2023-05-07T02:29:43;22.50;60.00
10121;DHT22;5100;45.176;5.714;2023-05-07T02:32:09;22.50;60.10
10121;DHT22;5100;45.176;5.714;2023-05-07T02:34:35;22.40;60.30
10121;DHT22;5100;45.176;5.714;2023-05-07T02:37:01;22.40;60.30
10121;DHT22;5100;45.176;5.714;2023-05-07T02:39:28;22.40;60.30
10121;DHT22;5100;45.176;5.714;2023-05-07T02:41:54;22.40;60.40
10121;DHT22;5100;45.176;5.714;2023-05-07T02:44:20;22.30;60.30
10121;DHT22;5100;45.176;5.714;2023-05-07T02:46:49;22.30;60.10
10121;DHT22;5100;45.176;5.714;2023-05-07T02:49:15;22.30;60.00
10121;DHT22;5100;45.176;5.714;2023-05-07T02:51:41;22.30;60.00
10121;DHT22;5100;45.176;5.714;2023-05-07T02:54:08;22.30;59.90
10121;DHT22;5100;45.176;5.714;2023-05-07T02:56:34;22.30;60.00
10121;DHT22;5100;45.176;5.714;2023-05-07T02:59:01;22.20;59.80
10121;DHT22;5100;45.176;5.714;2023-05-07T03:01:28;22.20;59.70
10121;DHT22;5100;45.176;5.714;2023-05-07T03:03:54;22.20;58.90
10121;DHT22;5100;45.176;5.714;2023-05-07T03:06:21;22.20;57.80
10121;DHT22;5100;45.176;5.714;2023-05-07T03:08:47;22.20;57.30
10121;DHT22;5100;45.176;5.714;2023-05-07T03:11:13;22.20;57.40
10121;DHT22;5100;45.176;5.714;2023-05-07T03:13:40;22.20;57.40
10121;DHT22;5100;45.176;5.714;2023-05-07T03:16:07;22.10;57.70
10121;DHT22;5100;45.176;5.714;2023-05-07T03:18:33;22.10;58.00
10121;DHT22;5100;45.176;5.714;2023-05-07T03:20:58;22.10;58.10
10121;DHT22;5100;45.176;5.714;2023-05-07T03:23:25;22.10;58.30
10121;DHT22;5100;45.176;5.714;2023-05-07T03:25:51;22.10;58.70
10121;DHT22;5100;45.176;5.714;2023-05-07T03:28:17;22.10;59.00
10121;DHT22;5100;45.176;5.714;2023-05-07T03:30:44;22.10;59.30
10121;DHT22;5100;45.176;5.714;2023-05-07T03:33:10;22.00;59.70
10121;DHT22;5100;45.176;5.714;2023-05-07T03:35:36;22.00;60.00
10121;DHT22;5100;45.176;5.714;2023-05-07T03:38:02;22.00;60.20
10121;DHT22;5100;45.176;5.714;2023-05-07T03:40:29;22.00;60.40
10121;DHT22;5100;45.176;5.714;2023-05-07T03:42:56;21.90;60.40
10121;DHT22;5100;45.176;5.714;2023-05-07T03:45:22;21.90;60.50
10121;DHT22;5100;45.176;5.714;2023-05-07T03:47:49;21.90;60.50
10121;DHT22;5100;45.176;5.714;2023-05-07T03:50:16;21.90;60.40
10121;DHT22;5100;45.176;5.714;2023-05-07T03:52:42;21.90;60.40
10121;DHT22;5100;45.176;5.714;2023-05-07T03:55:09;21.80;60.50
10121;DHT22;5100;45.176;5.714;2023-05-07T03:57:36;21.80;60.50
10121;DHT22;5100;45.176;5.714;2023-05-07T04:00:03;21.80;60.50
10121;DHT22;5100;45.176;5.714;2023-05-07T04:02:35;21.80;60.60
10121;DHT22;5100;45.176;5.714;2023-05-07T04:05:02;21.70;60.60
10121;DHT22;5100;45.176;5.714;2023-05-07T04:07:28;21.80;60.70
10121;DHT22;5100;45.176;5.714;2023-05-07T04:09:54;21.70;60.80
10121;DHT22;5100;45.176;5.714;2023-05-07T04:12:20;21.70;60.80
10121;DHT22;5100;45.176;5.714;2023-05-07T04:14:48;21.70;60.80
10121;DHT22;5100;45.176;5.714;2023-05-07T04:17:14;21.70;60.70
10121;DHT22;5100;45.176;5.714;2023-05-07T04:19:40;21.70;60.70
10121;DHT22;5100;45.176;5.714;2023-05-07T04:22:11;21.70;60.70
10121;DHT22;5100;45.176;5.714;2023-05-07T04:24:38;21.60;60.80
10121;DHT22;5100;45.176;5.714;2023-05-07T04:27:05;21.60;60.90
10121;DHT22;5100;45.176;5.714;2023-05-07T04:29:32;21.60;61.00
10121;DHT22;5100;45.176;5.714;2023-05-07T04:31:58;21.60;61.00
10121;DHT22;5100;45.176;5.714;2023-05-07T04:34:25;21.60;61.10
10121;DHT22;5100;45.176;5.714;2023-05-07T04:36:53;21.60;61.20
10121;DHT22;5100;45.176;5.714;2023-05-07T04:39:19;21.60;61.20
10121;DHT22;5100;45.176;5.714;2023-05-07T04:41:45;21.60;61.30
10121;DHT22;5100;45.176;5.714;2023-05-07T04:44:12;21.50;61.30
10121;DHT22;5100;45.176;5.714;2023-05-07T04:46:38;21.50;61.40
10121;DHT22;5100;45.176;5.714;2023-05-07T04:49:04;21.50;61.50
10121;DHT22;5100;45.176;5.714;2023-05-07T04:51:31;21.50;61.50
10121;DHT22;5100;45.176;5.714;2023-05-07T04:53:58;21.50;61.60
10121;DHT22;5100;45.176;5.714;2023-05-07T04:56:28;21.50;61.60
10121;DHT22;5100;45.176;5.714;2023-05-07T04:58:56;21.50;61.60
10121;DHT22;5100;45.176;5.714;2023-05-07T05:01:22;21.50;61.50
10121;DHT22;5100;45.176;5.714;2023-05-07T05:03:48;21.50;61.40
10121;DHT22;5100;45.176;5.714;2023-05-07T05:06:15;21.50;61.50
10121;DHT22;5100;45.176;5.714;2023-05-07T05:08:41;21.50;61.60
10121;DHT22;5100;45.176;5.714;2023-05-07T05:11:09;21.50;61.60
10121;DHT22;5100;45.176;5.714;2023-05-07T05:13:35;21.50;61.60
10121;DHT22;5100;45.176;5.714;2023-05-07T05:16:02;21.50;61.70
10121;DHT22;5100;45.176;5.714;2023-05-07T05:18:29;21.50;61.70
10121;DHT22;5100;45.176;5.714;2023-05-07T05:20:55;21.50;61.70
10121;DHT22;5100;45.176;5.714;2023-05-07T05:23:21;21.50;61.70
10121;DHT22;5100;45.176;5.714;2023-05-07T05:25:48;21.50;61.70
10121;DHT22;5100;45.176;5.714;2023-05-07T05:28:14;21.50;61.70
10121;DHT22;5100;45.176;5.714;2023-05-07T05:30:40;21.50;61.60
10121;DHT22;5100;45.176;5.714;2023-05-07T05:33:07;21.50;61.60
10121;DHT22;5100;45.176;5.714;2023-05-07T05:35:33;21.50;61.50
10121;DHT22;5100;45.176;5.714;2023-05-07T05:38:02;21.50;61.50
10121;DHT22;5100;45.176;5.714;2023-05-07T05:40:29;21.50;61.40
10121;DHT22;5100;45.176;5.714;2023-05-07T05:42:55;21.50;61.40
10121;DHT22;5100;45.176;5.714;2023-05-07T05:45:21;21.50;61.30
10121;DHT22;5100;45.176;5.714;2023-05-07T05:47:48;21.50;61.40
10121;DHT22;5100;45.176;5.714;2023-05-07T05:50:14;21.50;61.40
10121;DHT22;5100;45.176;5.714;2023-05-07T05:52:40;21.50;61.50
10121;DHT22;5100;45.176;5.714;2023-05-07T05:55:07;21.50;61.60
10121;DHT22;5100;45.176;5.714;2023-05-07T05:57:35;21.60;61.60
10121;DHT22;5100;45.176;5.714;2023-05-07T06:00:02;21.60;61.50
10121;DHT22;5100;45.176;5.714;2023-05-07T06:02:30;21.50;61.50
10121;DHT22;5100;45.176;5.714;2023-05-07T06:04:56;21.60;61.30
10121;DHT22;5100;45.176;5.714;2023-05-07T06:07:22;21.60;61.10
10121;DHT22;5100;45.176;5.714;2023-05-07T06:09:48;21.60;61.00
10121;DHT22;5100;45.176;5.714;2023-05-07T06:12:15;21.60;61.00
10121;DHT22;5100;45.176;5.714;2023-05-07T06:14:43;21.60;60.90
10121;DHT22;5100;45.176;5.714;2023-05-07T06:17:10;21.60;60.70
10121;DHT22;5100;45.176;5.714;2023-05-07T06:19:36;21.60;60.80
10121;DHT22;5100;45.176;5.714;2023-05-07T06:22:03;21.70;60.60
10121;DHT22;5100;45.176;5.714;2023-05-07T06:24:29;21.70;60.40
10121;DHT22;5100;45.176;5.714;2023-05-07T06:26:55;21.70;60.20
10121;DHT22;5100;45.176;5.714;2023-05-07T06:29:22;21.80;60.00
10121;DHT22;5100;45.176;5.714;2023-05-07T06:31:48;21.80;59.80
10121;DHT22;5100;45.176;5.714;2023-05-07T06:34:15;21.90;59.50
10121;DHT22;5100;45.176;5.714;2023-05-07T06:36:41;21.90;59.40
10121;DHT22;5100;45.176;5.714;2023-05-07T06:39:08;22.00;59.20
10121;DHT22;5100;45.176;5.714;2023-05-07T06:41:35;22.00;59.00
10121;DHT22;5100;45.176;5.714;2023-05-07T06:44:05;22.10;58.40
10121;DHT22;5100;45.176;5.714;2023-05-07T06:46:31;22.20;57.70
10121;DHT22;5100;45.176;5.714;2023-05-07T06:48:57;22.20;57.60
10121;DHT22;5100;45.176;5.714;2023-05-07T06:51:25;22.30;58.00
10121;DHT22;5100;45.176;5.714;2023-05-07T06:53:51;22.40;58.40
10121;DHT22;5100;45.176;5.714;2023-05-07T06:56:17;22.40;58.30
10121;DHT22;5100;45.176;5.714;2023-05-07T06:58:43;22.50;58.30
10121;DHT22;5100;45.176;5.714;2023-05-07T07:01:10;22.60;58.20
10121;DHT22;5100;45.176;5.714;2023-05-07T07:03:36;22.70;58.50
10121;DHT22;5100;45.176;5.714;2023-05-07T07:06:02;22.70;58.60
10121;DHT22;5100;45.176;5.714;2023-05-07T07:08:29;22.80;58.50
10121;DHT22;5100;45.176;5.714;2023-05-07T07:10:56;22.90;58.30
10121;DHT22;5100;45.176;5.714;2023-05-07T07:13:22;22.90;58.20
10121;DHT22;5100;45.176;5.714;2023-05-07T07:15:49;22.90;58.10
10121;DHT22;5100;45.176;5.714;2023-05-07T07:18:16;22.90;57.90
10121;DHT22;5100;45.176;5.714;2023-05-07T07:20:45;22.90;57.60
10121;DHT22;5100;45.176;5.714;2023-05-07T07:23:13;22.90;57.30
10121;DHT22;5100;45.176;5.714;2023-05-07T07:25:39;22.90;57.50
10121;DHT22;5100;45.176;5.714;2023-05-07T07:28:05;22.90;57.70
10121;DHT22;5100;45.176;5.714;2023-05-07T07:30:31;22.90;57.70
10121;DHT22;5100;45.176;5.714;2023-05-07T07:32:58;22.90;57.80
10121;DHT22;5100;45.176;5.714;2023-05-07T07:35:32;23.00;57.70
10121;DHT22;5100;45.176;5.714;2023-05-07T07:37:59;23.00;57.70
10121;DHT22;5100;45.176;5.714;2023-05-07T07:40:25;23.00;57.80
10121;DHT22;5100;45.176;5.714;2023-05-07T07:42:52;23.10;57.80
10121;DHT22;5100;45.176;5.714;2023-05-07T07:45:19;23.10;57.70
10121;DHT22;5100;45.176;5.714;2023-05-07T07:47:46;23.10;57.70
10121;DHT22;5100;45.176;5.714;2023-05-07T07:50:13;23.20;57.60
10121;DHT22;5100;45.176;5.714;2023-05-07T07:52:40;23.30;57.60
10121;DHT22;5100;45.176;5.714;2023-05-07T07:55:07;23.30;57.40
10121;DHT22;5100;45.176;5.714;2023-05-07T07:57:33;23.40;57.20
10121;DHT22;5100;45.176;5.714;2023-05-07T08:00:00;23.50;57.10
10121;DHT22;5100;45.176;5.714;2023-05-07T08:02:27;23.50;57.00
10121;DHT22;5100;45.176;5.714;2023-05-07T08:04:53;23.60;57.10
10121;DHT22;5100;45.176;5.714;2023-05-07T08:07:20;23.60;57.00
10121;DHT22;5100;45.176;5.714;2023-05-07T08:09:48;23.60;56.90
10121;DHT22;5100;45.176;5.714;2023-05-07T08:12:15;23.70;56.90
10121;DHT22;5100;45.176;5.714;2023-05-07T08:14:42;23.70;56.80
10121;DHT22;5100;45.176;5.714;2023-05-07T08:17:08;23.70;56.70
10121;DHT22;5100;45.176;5.714;2023-05-07T08:19:36;23.70;56.70
10121;DHT22;5100;45.176;5.714;2023-05-07T08:22:03;23.80;56.60
10121;DHT22;5100;45.176;5.714;2023-05-07T08:24:31;23.80;56.30
10121;DHT22;5100;45.176;5.714;2023-05-07T08:26:58;23.80;55.90
10121;DHT22;5100;45.176;5.714;2023-05-07T08:29:24;23.80;55.90
10121;DHT22;5100;45.176;5.714;2023-05-07T08:31:50;23.80;56.00
10121;DHT22;5100;45.176;5.714;2023-05-07T08:34:16;23.80;56.00
10121;DHT22;5100;45.176;5.714;2023-05-07T08:36:43;23.80;55.90
10121;DHT22;5100;45.176;5.714;2023-05-07T08:39:10;23.80;55.90
10121;DHT22;5100;45.176;5.714;2023-05-07T08:41:36;23.80;55.90
10121;DHT22;5100;45.176;5.714;2023-05-07T08:44:06;23.70;55.90
10121;DHT22;5100;45.176;5.714;2023-05-07T08:46:37;23.70;55.90
10121;DHT22;5100;45.176;5.714;2023-05-07T08:49:03;23.70;55.70
10121;DHT22;5100;45.176;5.714;2023-05-07T08:51:29;23.70;55.70
10121;DHT22;5100;45.176;5.714;2023-05-07T08:53:56;23.70;56.10
10121;DHT22;5100;45.176;5.714;2023-05-07T08:56:22;23.70;56.70
10121;DHT22;5100;45.176;5.714;2023-05-07T08:58:49;23.70;58.00
10121;DHT22;5100;45.176;5.714;2023-05-07T09:01:16;23.70;58.60
10121;DHT22;5100;45.176;5.714;2023-05-07T09:03:46;23.60;58.90
10121;DHT22;5100;45.176;5.714;2023-05-07T09:06:13;23.60;59.50
10121;DHT22;5100;45.176;5.714;2023-05-07T09:08:53;23.60;60.10
10121;DHT22;5100;45.176;5.714;2023-05-07T09:11:21;23.60;60.90
10121;DHT22;5100;45.176;5.714;2023-05-07T09:13:58;23.60;61.00
10121;DHT22;5100;45.176;5.714;2023-05-07T09:16:28;23.60;61.70
10121;DHT22;5100;45.176;5.714;2023-05-07T09:18:58;23.50;62.20
10121;DHT22;5100;45.176;5.714;2023-05-07T09:21:24;23.50;62.20
10121;DHT22;5100;45.176;5.714;2023-05-07T09:23:53;23.50;61.90
10121;DHT22;5100;45.176;5.714;2023-05-07T09:26:24;23.50;62.00
10121;DHT22;5100;45.176;5.714;2023-05-07T09:28:51;23.50;62.00
10121;DHT22;5100;45.176;5.714;2023-05-07T09:31:18;23.50;62.00
10121;DHT22;5100;45.176;5.714;2023-05-07T09:33:45;23.50;62.00
10121;DHT22;5100;45.176;5.714;2023-05-07T09:36:12;23.50;62.10
10121;DHT22;5100;45.176;5.714;2023-05-07T09:38:38;23.50;62.00
10121;DHT22;5100;45.176;5.714;2023-05-07T09:41:10;23.50;62.70
10121;DHT22;5100;45.176;5.714;2023-05-07T09:43:39;23.50;63.10
10121;DHT22;5100;45.176;5.714;2023-05-07T09:46:14;23.50;62.50
10121;DHT22;5100;45.176;5.714;2023-05-07T09:48:42;23.50;62.20
10121;DHT22;5100;45.176;5.714;2023-05-07T09:51:22;23.50;63.50
10121;DHT22;5100;45.176;5.714;2023-05-07T09:53:53;23.50;64.10
10121;DHT22;5100;45.176;5.714;2023-05-07T09:56:21;23.50;64.20
10121;DHT22;5100;45.176;5.714;2023-05-07T09:58:47;23.50;64.50
10121;DHT22;5100;45.176;5.714;2023-05-07T10:01:16;23.40;64.50
10121;DHT22;5100;45.176;5.714;2023-05-07T10:03:43;23.40;64.30
10121;DHT22;5100;45.176;5.714;2023-05-07T10:06:10;23.30;63.60
10121;DHT22;5100;45.176;5.714;2023-05-07T10:08:37;23.30;62.50
10121;DHT22;5100;45.176;5.714;2023-05-07T10:11:05;23.20;61.60
10121;DHT22;5100;45.176;5.714;2023-05-07T10:13:33;23.20;61.10
10121;DHT22;5100;45.176;5.714;2023-05-07T10:16:05;23.10;60.70
10121;DHT22;5100;45.176;5.714;2023-05-07T10:18:33;23.10;60.40
10121;DHT22;5100;45.176;5.714;2023-05-07T10:21:11;23.10;60.50
10121;DHT22;5100;45.176;5.714;2023-05-07T10:23:53;23.00;60.50
10121;DHT22;5100;45.176;5.714;2023-05-07T10:26:21;23.00;60.40
10121;DHT22;5100;45.176;5.714;2023-05-07T10:28:53;23.00;60.20
10121;DHT22;5100;45.176;5.714;2023-05-07T10:31:43;22.90;60.10
10121;DHT22;5100;45.176;5.714;2023-05-07T10:34:16;22.90;60.10
10121;DHT22;5100;45.176;5.714;2023-05-07T10:36:44;22.90;60.00
10121;DHT22;5100;45.176;5.714;2023-05-07T10:39:11;22.80;60.00
10121;DHT22;5100;45.176;5.714;2023-05-07T10:41:38;22.80;59.90
10121;DHT22;5100;45.176;5.714;2023-05-07T10:44:05;22.70;60.00
10121;DHT22;5100;45.176;5.714;2023-05-07T10:46:32;22.70;60.20
10121;DHT22;5100;45.176;5.714;2023-05-07T10:51:35;22.70;60.50
10121;DHT22;5100;45.176;5.714;2023-05-07T10:56:42;22.60;60.60
10121;DHT22;5100;45.176;5.714;2023-05-07T11:01:52;22.70;60.80
10121;DHT22;5100;45.176;5.714;2023-05-07T11:04:21;22.70;60.60
10121;DHT22;5100;45.176;5.714;2023-05-07T11:09:58;22.70;60.50
10121;DHT22;5100;45.176;5.714;2023-05-07T11:15:13;22.70;60.40
10121;DHT22;5100;45.176;5.714;2023-05-07T11:17:56;22.70;60.10
10121;DHT22;5100;45.176;5.714;2023-05-07T11:20:46;22.80;60.00
10121;DHT22;5100;45.176;5.714;2023-05-07T11:26:09;22.90;60.10
10121;DHT22;5100;45.176;5.714;2023-05-07T11:28:37;22.90;60.00
10121;DHT22;5100;45.176;5.714;2023-05-07T11:31:04;22.90;60.00
10121;DHT22;5100;45.176;5.714;2023-05-07T11:33:31;22.90;60.30
10121;DHT22;5100;45.176;5.714;2023-05-07T11:35:59;22.90;60.20
10121;DHT22;5100;45.176;5.714;2023-05-07T11:38:35;22.90;60.10
10121;DHT22;5100;45.176;5.714;2023-05-07T11:41:02;22.90;60.00
10121;DHT22;5100;45.176;5.714;2023-05-07T11:43:33;22.90;59.90
10121;DHT22;5100;45.176;5.714;2023-05-07T11:46:10;22.90;59.90
10121;DHT22;5100;45.176;5.714;2023-05-07T11:48:36;22.90;60.00
10121;DHT22;5100;45.176;5.714;2023-05-07T11:51:06;22.90;59.90
10121;DHT22;5100;45.176;5.714;2023-05-07T11:53:40;22.90;59.80
10121;DHT22;5100;45.176;5.714;2023-05-07T11:56:15;22.90;59.90
10121;DHT22;5100;45.176;5.714;2023-05-07T11:58:42;22.80;59.90
10121;DHT22;5100;45.176;5.714;2023-05-07T12:01:11;22.80;59.90
10121;DHT22;5100;45.176;5.714;2023-05-07T12:03:40;22.80;60.00
10121;DHT22;5100;45.176;5.714;2023-05-07T12:06:08;22.80;59.90
10121;DHT22;5100;45.176;5.714;2023-05-07T12:08:37;22.70;60.00
10121;DHT22;5100;45.176;5.714;2023-05-07T12:11:07;22.70;60.00
10121;DHT22;5100;45.176;5.714;2023-05-07T12:13:34;22.80;59.90
10121;DHT22;5100;45.176;5.714;2023-05-07T12:16:01;22.80;59.70
10121;DHT22;5100;45.176;5.714;2023-05-07T12:18:29;22.80;59.70
10121;DHT22;5100;45.176;5.714;2023-05-07T12:20:56;22.80;59.40
10121;DHT22;5100;45.176;5.714;2023-05-07T12:23:22;22.90;59.40
10121;DHT22;5100;45.176;5.714;2023-05-07T12:25:51;22.90;59.40
10121;DHT22;5100;45.176;5.714;2023-05-07T12:28:17;22.90;59.40
10121;DHT22;5100;45.176;5.714;2023-05-07T12:30:46;23.00;59.40
10121;DHT22;5100;45.176;5.714;2023-05-07T12:33:17;23.00;59.30
10121;DHT22;5100;45.176;5.714;2023-05-07T12:35:43;23.00;59.40
10121;DHT22;5100;45.176;5.714;2023-05-07T12:38:13;23.00;59.30
10121;DHT22;5100;45.176;5.714;2023-05-07T12:40:48;23.00;59.30
10121;DHT22;5100;45.176;5.714;2023-05-07T12:43:20;23.10;59.50
10121;DHT22;5100;45.176;5.714;2023-05-07T12:45:49;23.00;59.60
10121;DHT22;5100;45.176;5.714;2023-05-07T12:48:16;23.10;59.80
10121;DHT22;5100;45.176;5.714;2023-05-07T12:50:42;23.10;59.90
10121;DHT22;5100;45.176;5.714;2023-05-07T12:53:11;23.10;60.20
10121;DHT22;5100;45.176;5.714;2023-05-07T12:55:57;23.10;60.30
10121;DHT22;5100;45.176;5.714;2023-05-07T12:58:29;23.10;60.40
10121;DHT22;5100;45.176;5.714;2023-05-07T13:00:56;23.00;60.60
10121;DHT22;5100;45.176;5.714;2023-05-07T13:03:31;23.00;60.70
10121;DHT22;5100;45.176;5.714;2023-05-07T13:05:59;23.00;60.80
10121;DHT22;5100;45.176;5.714;2023-05-07T13:08:34;23.00;61.00
10121;DHT22;5100;45.176;5.714;2023-05-07T13:11:01;23.00;61.10
10121;DHT22;5100;45.176;5.714;2023-05-07T13:13:31;23.00;61.20
10121;DHT22;5100;45.176;5.714;2023-05-07T13:15:57;23.00;61.40
10121;DHT22;5100;45.176;5.714;2023-05-07T13:18:25;23.00;61.50
10121;DHT22;5100;45.176;5.714;2023-05-07T13:20:53;22.90;61.60
10121;DHT22;5100;45.176;5.714;2023-05-07T13:23:19;22.90;61.50
10121;DHT22;5100;45.176;5.714;2023-05-07T13:25:45;22.90;61.50
10121;DHT22;5100;45.176;5.714;2023-05-07T13:28:11;23.00;61.40
10121;DHT22;5100;45.176;5.714;2023-05-07T13:30:38;22.90;61.20
10121;DHT22;5100;45.176;5.714;2023-05-07T13:33:04;22.90;61.10
10121;DHT22;5100;45.176;5.714;2023-05-07T13:35:31;22.90;61.00
10121;DHT22;5100;45.176;5.714;2023-05-07T13:37:57;22.90;61.00
10121;DHT22;5100;45.176;5.714;2023-05-07T13:40:23;22.90;61.10
10121;DHT22;5100;45.176;5.714;2023-05-07T13:42:50;22.90;61.20
10121;DHT22;5100;45.176;5.714;2023-05-07T13:45:20;22.90;61.20
10121;DHT22;5100;45.176;5.714;2023-05-07T13:47:46;22.90;61.10
10121;DHT22;5100;45.176;5.714;2023-05-07T13:50:13;22.90;61.10
10121;DHT22;5100;45.176;5.714;2023-05-07T13:52:45;22.90;60.90
10121;DHT22;5100;45.176;5.714;2023-05-07T13:55:18;22.90;60.80
10121;DHT22;5100;45.176;5.714;2023-05-07T13:57:44;22.90;60.80
10121;DHT22;5100;45.176;5.714;2023-05-07T14:00:11;22.90;60.90
10121;DHT22;5100;45.176;5.714;2023-05-07T14:02:40;22.90;61.00
10121;DHT22;5100;45.176;5.714;2023-05-07T14:05:07;22.90;61.00
10121;DHT22;5100;45.176;5.714;2023-05-07T14:07:34;22.90;61.00
10121;DHT22;5100;45.176;5.714;2023-05-07T14:10:01;22.80;61.10
10121;DHT22;5100;45.176;5.714;2023-05-07T14:12:27;22.80;61.20
10121;DHT22;5100;45.176;5.714;2023-05-07T14:14:53;22.70;61.40
10121;DHT22;5100;45.176;5.714;2023-05-07T14:17:20;22.70;61.50
10121;DHT22;5100;45.176;5.714;2023-05-07T14:19:49;22.60;61.70
10121;DHT22;5100;45.176;5.714;2023-05-07T14:22:15;22.60;62.00
10121;DHT22;5100;45.176;5.714;2023-05-07T14:24:41;22.50;62.00
10121;DHT22;5100;45.176;5.714;2023-05-07T14:27:07;22.50;62.10
10121;DHT22;5100;45.176;5.714;2023-05-07T14:29:33;22.50;62.30
10121;DHT22;5100;45.176;5.714;2023-05-07T14:32:01;22.40;62.30
10121;DHT22;5100;45.176;5.714;2023-05-07T14:34:29;22.40;62.50
10121;DHT22;5100;45.176;5.714;2023-05-07T14:36:55;22.40;62.60
10121;DHT22;5100;45.176;5.714;2023-05-07T14:39:21;22.30;62.70
10121;DHT22;5100;45.176;5.714;2023-05-07T14:41:47;22.30;62.80
10121;DHT22;5100;45.176;5.714;2023-05-07T14:44:13;22.30;62.90
10121;DHT22;5100;45.176;5.714;2023-05-07T14:46:39;22.30;63.00
10121;DHT22;5100;45.176;5.714;2023-05-07T14:49:06;22.30;63.10
10121;DHT22;5100;45.176;5.714;2023-05-07T14:51:32;22.30;63.10
10121;DHT22;5100;45.176;5.714;2023-05-07T14:53:58;22.30;63.10
10121;DHT22;5100;45.176;5.714;2023-05-07T14:56:25;22.30;63.20
10121;DHT22;5100;45.176;5.714;2023-05-07T14:58:51;22.30;63.30
10121;DHT22;5100;45.176;5.714;2023-05-07T15:01:17;22.30;63.40
10121;DHT22;5100;45.176;5.714;2023-05-07T15:03:44;22.30;63.50
10121;DHT22;5100;45.176;5.714;2023-05-07T15:06:10;22.30;63.70
10121;DHT22;5100;45.176;5.714;2023-05-07T15:08:36;22.30;63.80
10121;DHT22;5100;45.176;5.714;2023-05-07T15:11:02;22.30;63.90
10121;DHT22;5100;45.176;5.714;2023-05-07T15:13:28;22.30;63.90
10121;DHT22;5100;45.176;5.714;2023-05-07T15:15:54;22.30;64.10
10121;DHT22;5100;45.176;5.714;2023-05-07T15:18:20;22.30;64.20
10121;DHT22;5100;45.176;5.714;2023-05-07T15:20:46;22.30;64.30
10121;DHT22;5100;45.176;5.714;2023-05-07T15:23:12;22.30;64.20
10121;DHT22;5100;45.176;5.714;2023-05-07T15:25:40;22.30;64.20
10121;DHT22;5100;45.176;5.714;2023-05-07T15:28:06;22.30;64.20
10121;DHT22;5100;45.176;5.714;2023-05-07T15:30:33;22.30;64.30
10121;DHT22;5100;45.176;5.714;2023-05-07T15:33:00;22.20;64.50
10121;DHT22;5100;45.176;5.714;2023-05-07T15:35:26;22.20;64.60
10121;DHT22;5100;45.176;5.714;2023-05-07T15:37:53;22.20;64.80
10121;DHT22;5100;45.176;5.714;2023-05-07T15:40:20;22.20;64.90
10121;DHT22;5100;45.176;5.714;2023-05-07T15:42:46;22.10;65.00
10121;DHT22;5100;45.176;5.714;2023-05-07T15:45:12;22.10;65.10
10121;DHT22;5100;45.176;5.714;2023-05-07T15:47:39;22.10;65.20
10121;DHT22;5100;45.176;5.714;2023-05-07T15:50:05;22.00;65.10
10121;DHT22;5100;45.176;5.714;2023-05-07T15:52:32;22.00;64.80
10121;DHT22;5100;45.176;5.714;2023-05-07T15:54:58;22.00;64.70
10121;DHT22;5100;45.176;5.714;2023-05-07T15:57:24;22.00;64.70
10121;DHT22;5100;45.176;5.714;2023-05-07T15:59:51;22.00;64.80
10121;DHT22;5100;45.176;5.714;2023-05-07T16:02:17;22.00;64.70